createdAt,value
2017-07-24T00:00:53.484Z,0
2017-07-24T00:01:55.364Z,0
2017-07-24T00:02:57.236Z,0
2017-07-24T00:03:59.126Z,0
2017-07-24T00:05:00.930Z,0
2017-07-24T00:06:02.757Z,0
2017-07-24T00:07:04.644Z,0
2017-07-24T00:08:06.513Z,0
2017-07-24T00:09:08.399Z,0
2017-07-24T00:10:22.540Z,0
2017-07-24T00:11:24.410Z,0
2017-07-24T00:12:26.301Z,0
2017-07-24T00:13:28.167Z,0
2017-07-24T00:14:29.991Z,0
2017-07-24T00:15:31.802Z,0
2017-07-24T00:16:33.693Z,0
2017-07-24T00:17:35.579Z,0
2017-07-24T00:18:37.471Z,0
2017-07-24T00:19:51.616Z,0
2017-07-24T00:20:53.504Z,0
2017-07-24T00:21:55.370Z,0
2017-07-24T00:22:57.255Z,0
2017-07-24T00:23:59.061Z,0
2017-07-24T00:25:00.888Z,0
2017-07-24T00:26:02.750Z,0
2017-07-24T00:27:04.616Z,0
2017-07-24T00:28:06.485Z,0
2017-07-24T00:29:20.654Z,0
2017-07-24T00:30:22.537Z,0
2017-07-24T00:31:24.407Z,0
2017-07-24T00:32:26.294Z,0
2017-07-24T00:33:28.108Z,0
2017-07-24T00:34:29.925Z,0
2017-07-24T00:35:31.788Z,0
2017-07-24T00:36:33.661Z,0
2017-07-24T00:37:35.552Z,0
2017-07-24T00:38:49.767Z,0
2017-07-24T00:39:51.650Z,0
2017-07-24T00:40:53.521Z,0
2017-07-24T00:41:55.385Z,0
2017-07-24T00:42:57.190Z,0
2017-07-24T00:43:58.995Z,0
2017-07-24T00:45:00.875Z,0
2017-07-24T00:46:02.741Z,0
2017-07-24T00:47:04.611Z,0
2017-07-24T00:48:18.825Z,0
2017-07-24T00:49:20.684Z,0
2017-07-24T00:50:22.546Z,0
2017-07-24T00:51:24.413Z,0
2017-07-24T00:52:26.219Z,0
2017-07-24T00:53:28.050Z,0
2017-07-24T00:54:29.941Z,0
2017-07-24T00:55:31.802Z,0
2017-07-24T00:56:33.693Z,0
2017-07-24T00:57:47.903Z,0
2017-07-24T00:58:49.765Z,0
2017-07-24T00:59:51.634Z,0
2017-07-24T01:00:53.499Z,0
2017-07-24T01:01:55.305Z,0
2017-07-24T01:02:57.138Z,0
2017-07-24T01:03:59.034Z,0
2017-07-24T01:05:00.920Z,0
2017-07-24T01:06:02.808Z,0
2017-07-24T01:07:16.953Z,0
2017-07-24T01:08:18.845Z,0
2017-07-24T01:09:20.733Z,0
2017-07-24T01:10:22.620Z,0
2017-07-24T01:11:24.428Z,0
2017-07-24T01:12:26.236Z,0
2017-07-24T01:13:28.119Z,0
2017-07-24T01:14:29.989Z,0
2017-07-24T01:15:31.880Z,0
2017-07-24T01:16:46.041Z,0
2017-07-24T01:17:47.913Z,0
2017-07-24T01:18:49.780Z,0
2017-07-24T01:19:51.668Z,0
2017-07-24T01:20:53.497Z,0
2017-07-24T01:21:55.326Z,0
2017-07-24T01:22:57.191Z,0
2017-07-24T01:23:59.057Z,0
2017-07-24T01:25:00.934Z,0
2017-07-24T01:26:15.096Z,0
2017-07-24T01:27:16.962Z,0
2017-07-24T01:28:18.829Z,0
2017-07-24T01:29:20.692Z,0
2017-07-24T01:30:22.502Z,0
2017-07-24T01:31:24.341Z,0
2017-07-24T01:32:26.227Z,0
2017-07-24T01:33:28.088Z,0
2017-07-24T01:34:29.957Z,0
2017-07-24T01:35:44.099Z,0
2017-07-24T01:36:45.985Z,0
2017-07-24T01:37:47.884Z,0
2017-07-24T01:38:49.767Z,0
2017-07-24T01:39:51.571Z,0
2017-07-24T01:40:53.378Z,0
2017-07-24T01:41:55.268Z,0
2017-07-24T01:42:57.155Z,0
2017-07-24T01:44:05.295Z,0
2017-07-24T01:45:19.438Z,0
2017-07-24T01:46:21.307Z,0
2017-07-24T01:47:23.177Z,0
2017-07-24T01:48:25.066Z,0
2017-07-24T01:49:26.879Z,0
2017-07-24T01:50:28.711Z,0
2017-07-24T01:51:30.578Z,0
2017-07-24T01:52:32.463Z,0
2017-07-24T01:53:34.329Z,0
2017-07-24T01:54:48.478Z,0
2017-07-24T01:55:50.368Z,0
2017-07-24T01:56:52.258Z,0
2017-07-24T01:57:54.131Z,0
2017-07-24T01:58:55.962Z,0
2017-07-24T01:59:57.766Z,0
2017-07-24T02:00:59.640Z,0
2017-07-24T02:02:01.530Z,0
2017-07-24T02:03:03.400Z,0
2017-07-24T02:04:17.568Z,0
2017-07-24T02:05:19.434Z,0
2017-07-24T02:06:21.307Z,0
2017-07-24T02:07:23.175Z,0
2017-07-24T02:08:25.001Z,0
2017-07-24T02:09:26.815Z,0
2017-07-24T02:10:28.707Z,0
2017-07-24T02:11:30.573Z,0
2017-07-24T02:12:32.440Z,0
2017-07-24T02:13:46.609Z,0
2017-07-24T02:14:48.495Z,0
2017-07-24T02:15:50.364Z,0
2017-07-24T02:16:52.232Z,0
2017-07-24T02:17:54.043Z,0
2017-07-24T02:18:55.851Z,0
2017-07-24T02:19:57.717Z,0
2017-07-24T02:20:59.589Z,0
2017-07-24T02:22:01.450Z,0
2017-07-24T02:23:15.597Z,0
2017-07-24T02:24:17.490Z,0
2017-07-24T02:25:19.379Z,0
2017-07-24T02:26:21.265Z,0
2017-07-24T02:27:23.082Z,0
2017-07-24T02:28:24.908Z,0
2017-07-24T02:29:26.777Z,0
2017-07-24T02:30:28.645Z,0
2017-07-24T02:31:30.533Z,0
2017-07-24T02:32:44.680Z,0
2017-07-24T02:33:46.599Z,0
2017-07-24T02:34:48.490Z,0
2017-07-24T02:35:50.381Z,0
2017-07-24T02:36:52.213Z,0
2017-07-24T02:37:54.046Z,0
2017-07-24T02:38:55.934Z,0
2017-07-24T02:39:57.804Z,0
2017-07-24T02:40:59.667Z,0
2017-07-24T02:42:13.866Z,0
2017-07-24T02:43:15.733Z,0
2017-07-24T02:44:17.623Z,0
2017-07-24T02:45:19.524Z,0
2017-07-24T02:46:21.361Z,0
2017-07-24T02:47:23.188Z,0
2017-07-24T02:48:25.081Z,0
2017-07-24T02:49:26.926Z,0
2017-07-24T02:50:28.791Z,0
2017-07-24T02:51:42.937Z,0
2017-07-24T02:52:44.824Z,0
2017-07-24T02:53:46.698Z,0
2017-07-24T02:54:48.569Z,0
2017-07-24T02:55:50.404Z,0
2017-07-24T02:56:52.240Z,0
2017-07-24T02:57:54.129Z,0
2017-07-24T02:58:56.003Z,0
2017-07-24T02:59:57.895Z,0
2017-07-24T03:01:12.061Z,0
2017-07-24T03:02:13.932Z,0
2017-07-24T03:03:15.831Z,0
2017-07-24T03:04:17.716Z,0
2017-07-24T03:05:19.542Z,0
2017-07-24T03:06:21.362Z,0
2017-07-24T03:07:23.231Z,0
2017-07-24T03:08:25.126Z,0
2017-07-24T03:09:26.994Z,0
2017-07-24T03:10:41.165Z,0
2017-07-24T03:11:43.055Z,0
2017-07-24T03:12:44.921Z,5
2017-07-24T03:13:46.791Z,5
2017-07-24T03:14:48.607Z,5
2017-07-24T03:15:50.438Z,5
2017-07-24T03:16:52.315Z,5
2017-07-24T03:17:54.209Z,5
2017-07-24T03:18:56.108Z,5
2017-07-24T03:20:10.274Z,5
2017-07-24T03:21:12.143Z,5
2017-07-24T03:22:14.010Z,5
2017-07-24T03:23:15.879Z,5
2017-07-24T03:24:17.715Z,5
2017-07-24T03:25:19.547Z,10
2017-07-24T03:26:21.424Z,10
2017-07-24T03:27:23.300Z,10
2017-07-24T03:28:25.185Z,10
2017-07-24T03:29:39.336Z,10
2017-07-24T03:30:41.205Z,15
2017-07-24T03:31:43.078Z,15
2017-07-24T03:32:44.971Z,15
2017-07-24T03:33:46.805Z,15
2017-07-24T03:34:48.618Z,15
2017-07-24T03:35:50.509Z,15
2017-07-24T03:36:52.382Z,15
2017-07-24T03:37:54.260Z,15
2017-07-24T03:39:08.437Z,15
2017-07-24T03:40:10.326Z,20
2017-07-24T03:41:12.197Z,20
2017-07-24T03:42:14.073Z,20
2017-07-24T03:43:15.882Z,20
2017-07-24T03:44:17.698Z,20
2017-07-24T03:45:19.591Z,20
2017-07-24T03:46:21.465Z,25
2017-07-24T03:47:23.329Z,25
2017-07-24T03:48:37.477Z,25
2017-07-24T03:49:39.345Z,25
2017-07-24T03:50:41.216Z,30
2017-07-24T03:51:43.089Z,30
2017-07-24T03:52:44.928Z,30
2017-07-24T03:53:46.761Z,30
2017-07-24T03:54:48.636Z,35
2017-07-24T03:55:50.512Z,35
2017-07-24T03:56:52.401Z,40
2017-07-24T03:58:06.555Z,40
2017-07-24T03:59:08.448Z,45
2017-07-24T04:00:10.341Z,45
2017-07-24T04:01:12.214Z,45
2017-07-24T04:02:14.030Z,50
2017-07-24T04:03:15.868Z,50
2017-07-24T04:04:17.763Z,50
2017-07-24T04:05:19.659Z,55
2017-07-24T04:06:21.531Z,55
2017-07-24T04:07:35.706Z,60
2017-07-24T04:08:37.600Z,60
2017-07-24T04:09:39.473Z,65
2017-07-24T04:10:41.352Z,65
2017-07-24T04:11:43.189Z,70
2017-07-24T04:12:45.027Z,75
2017-07-24T04:13:46.927Z,75
2017-07-24T04:14:48.779Z,80
2017-07-24T04:15:50.592Z,85
2017-07-24T04:17:04.735Z,90
2017-07-24T04:18:06.609Z,90
2017-07-24T04:19:08.509Z,95
2017-07-24T04:20:10.413Z,95
2017-07-24T04:21:12.219Z,100
2017-07-24T04:22:14.026Z,105
2017-07-24T04:23:15.898Z,120
2017-07-24T04:24:17.773Z,140
2017-07-24T04:25:19.665Z,155
2017-07-24T04:26:33.821Z,170
2017-07-24T04:27:35.694Z,170
2017-07-24T04:28:37.589Z,160
2017-07-24T04:29:39.468Z,150
2017-07-24T04:30:41.307Z,155
2017-07-24T04:31:43.126Z,155
2017-07-24T04:32:44.991Z,160
2017-07-24T04:33:46.864Z,160
2017-07-24T04:34:48.738Z,175
2017-07-24T04:36:02.923Z,185
2017-07-24T04:37:04.812Z,180
2017-07-24T04:38:06.685Z,195
2017-07-24T04:39:08.561Z,210
2017-07-24T04:40:10.386Z,215
2017-07-24T04:41:12.216Z,205
2017-07-24T04:42:14.092Z,185
2017-07-24T04:43:15.965Z,185
2017-07-24T04:44:17.839Z,230
2017-07-24T04:45:32.017Z,220
2017-07-24T04:46:33.888Z,235
2017-07-24T04:47:35.761Z,255
2017-07-24T04:48:37.639Z,245
2017-07-24T04:49:39.485Z,240
2017-07-24T04:50:41.327Z,235
2017-07-24T04:51:43.229Z,245
2017-07-24T04:52:45.132Z,230
2017-07-24T04:53:47.021Z,225
2017-07-24T04:55:01.178Z,235
2017-07-24T04:56:03.050Z,315
2017-07-24T04:57:04.931Z,320
2017-07-24T04:58:06.833Z,335
2017-07-24T04:59:08.667Z,335
2017-07-24T05:00:10.487Z,260
2017-07-24T05:01:12.370Z,295
2017-07-24T05:02:14.273Z,225
2017-07-24T05:03:16.169Z,200
2017-07-24T05:04:30.325Z,225
2017-07-24T05:05:32.233Z,250
2017-07-24T05:06:34.106Z,270
2017-07-24T05:07:36.013Z,300
2017-07-24T05:08:37.826Z,240
2017-07-24T05:09:39.651Z,310
2017-07-24T05:10:41.545Z,230
2017-07-24T05:11:43.421Z,250
2017-07-24T05:12:45.302Z,250
2017-07-24T05:13:59.455Z,240
2017-07-24T05:15:01.329Z,225
2017-07-24T05:16:03.231Z,225
2017-07-24T05:17:05.133Z,220
2017-07-24T05:18:06.978Z,220
2017-07-24T05:19:08.817Z,240
2017-07-24T05:20:10.701Z,250
2017-07-24T05:21:12.603Z,240
2017-07-24T05:22:14.498Z,240
2017-07-24T05:23:28.646Z,240
2017-07-24T05:24:30.559Z,230
2017-07-24T05:25:32.458Z,225
2017-07-24T05:26:34.361Z,220
2017-07-24T05:27:36.204Z,225
2017-07-24T05:28:38.047Z,230
2017-07-24T05:29:39.912Z,250
2017-07-24T05:30:41.752Z,225
2017-07-24T05:31:43.593Z,235
2017-07-24T05:32:57.810Z,230
2017-07-24T05:33:59.688Z,220
2017-07-24T05:35:01.591Z,220
2017-07-24T05:36:03.467Z,215
2017-07-24T05:37:05.279Z,215
2017-07-24T05:38:07.097Z,215
2017-07-24T05:39:08.995Z,215
2017-07-24T05:40:10.870Z,220
2017-07-24T05:41:12.749Z,220
2017-07-24T05:42:26.932Z,225
2017-07-24T05:43:28.825Z,225
2017-07-24T05:44:30.721Z,230
2017-07-24T05:45:32.605Z,235
2017-07-24T05:46:34.446Z,240
2017-07-24T05:47:36.286Z,240
2017-07-24T05:48:38.160Z,250
2017-07-24T05:49:40.045Z,255
2017-07-24T05:50:41.941Z,255
2017-07-24T05:51:56.114Z,260
2017-07-24T05:52:57.987Z,260
2017-07-24T05:53:59.865Z,255
2017-07-24T05:55:01.743Z,255
2017-07-24T05:56:03.585Z,250
2017-07-24T05:57:05.430Z,250
2017-07-24T05:58:07.332Z,245
2017-07-24T05:59:09.233Z,240
2017-07-24T06:00:11.107Z,240
2017-07-24T06:01:25.259Z,235
2017-07-24T06:02:27.157Z,235
2017-07-24T06:03:29.059Z,230
2017-07-24T06:04:30.930Z,230
2017-07-24T06:05:32.775Z,230
2017-07-24T06:06:34.614Z,225
2017-07-24T06:07:36.511Z,225
2017-07-24T06:08:38.393Z,225
2017-07-24T06:09:40.292Z,225
2017-07-24T06:10:54.467Z,230
2017-07-24T06:11:56.343Z,230
2017-07-24T06:12:58.240Z,230
2017-07-24T06:14:00.116Z,235
2017-07-24T06:15:01.932Z,235
2017-07-24T06:16:03.750Z,235
2017-07-24T06:17:05.652Z,235
2017-07-24T06:18:07.553Z,240
2017-07-24T06:19:09.450Z,240
2017-07-24T06:20:23.660Z,235
2017-07-24T06:21:25.559Z,235
2017-07-24T06:22:27.432Z,235
2017-07-24T06:23:29.329Z,235
2017-07-24T06:24:31.144Z,240
2017-07-24T06:25:32.963Z,240
2017-07-24T06:26:34.842Z,245
2017-07-24T06:27:36.738Z,245
2017-07-24T06:28:38.575Z,245
2017-07-24T06:29:52.731Z,245
2017-07-24T06:30:54.629Z,245
2017-07-24T06:31:56.526Z,255
2017-07-24T06:32:58.412Z,260
2017-07-24T06:34:00.251Z,270
2017-07-24T06:35:02.091Z,280
2017-07-24T06:36:03.973Z,280
2017-07-24T06:37:05.871Z,295
2017-07-24T06:38:07.769Z,290
2017-07-24T06:39:21.920Z,295
2017-07-24T06:40:23.799Z,295
2017-07-24T06:41:25.704Z,295
2017-07-24T06:42:27.603Z,300
2017-07-24T06:43:29.418Z,305
2017-07-24T06:44:31.238Z,315
2017-07-24T06:45:33.151Z,315
2017-07-24T06:46:35.015Z,320
2017-07-24T06:47:36.909Z,320
2017-07-24T06:48:51.092Z,320
2017-07-24T06:49:52.990Z,320
2017-07-24T06:50:54.895Z,320
2017-07-24T06:51:56.791Z,320
2017-07-24T06:52:58.616Z,325
2017-07-24T06:54:00.452Z,320
2017-07-24T06:55:02.334Z,325
2017-07-24T06:56:04.211Z,325
2017-07-24T06:57:06.112Z,320
2017-07-24T06:58:20.293Z,320
2017-07-24T06:59:22.191Z,325
2017-07-24T07:00:24.088Z,325
2017-07-24T07:01:25.974Z,330
2017-07-24T07:02:27.789Z,330
2017-07-24T07:03:29.660Z,330
2017-07-24T07:04:31.540Z,335
2017-07-24T07:05:33.410Z,335
2017-07-24T07:06:35.308Z,335
2017-07-24T07:07:49.464Z,330
2017-07-24T07:08:51.335Z,330
2017-07-24T07:09:53.214Z,335
2017-07-24T07:10:55.095Z,335
2017-07-24T07:11:56.934Z,335
2017-07-24T07:12:58.752Z,340
2017-07-24T07:14:00.719Z,340
2017-07-24T07:15:02.616Z,345
2017-07-24T07:16:04.495Z,350
2017-07-24T07:17:19.067Z,355
2017-07-24T07:18:20.914Z,365
2017-07-24T07:19:22.788Z,360
2017-07-24T07:20:24.669Z,360
2017-07-24T07:21:26.486Z,360
2017-07-24T07:22:28.308Z,365
2017-07-24T07:23:30.209Z,360
2017-07-24T07:24:32.050Z,360
2017-07-24T07:25:33.889Z,365
2017-07-24T07:26:48.094Z,360
2017-07-24T07:27:49.966Z,365
2017-07-24T07:28:51.873Z,360
2017-07-24T07:29:53.764Z,360
2017-07-24T07:30:55.589Z,360
2017-07-24T07:31:57.434Z,365
2017-07-24T07:32:59.314Z,370
2017-07-24T07:34:01.213Z,365
2017-07-24T07:35:03.089Z,370
2017-07-24T07:36:17.247Z,370
2017-07-24T07:37:19.149Z,370
2017-07-24T07:38:21.051Z,370
2017-07-24T07:39:22.957Z,370
2017-07-24T07:40:24.804Z,365
2017-07-24T07:41:26.648Z,365
2017-07-24T07:42:28.514Z,365
2017-07-24T07:43:30.430Z,365
2017-07-24T07:44:32.244Z,365
2017-07-24T07:45:46.497Z,365
2017-07-24T07:46:48.360Z,365
2017-07-24T07:47:50.262Z,360
2017-07-24T07:48:52.166Z,360
2017-07-24T07:49:54.011Z,365
2017-07-24T07:50:55.854Z,355
2017-07-24T07:51:57.760Z,355
2017-07-24T07:52:59.661Z,350
2017-07-24T07:54:01.540Z,345
2017-07-24T07:55:15.728Z,345
2017-07-24T07:56:17.623Z,340
2017-07-24T07:57:19.525Z,340
2017-07-24T07:58:21.408Z,340
2017-07-24T07:59:23.250Z,345
2017-07-24T08:00:25.120Z,350
2017-07-24T08:01:26.975Z,350
2017-07-24T08:02:28.854Z,350
2017-07-24T08:03:30.728Z,355
2017-07-24T08:04:44.886Z,360
2017-07-24T08:05:46.785Z,365
2017-07-24T08:06:48.648Z,365
2017-07-24T08:07:50.571Z,365
2017-07-24T08:08:52.420Z,370
2017-07-24T08:09:54.244Z,365
2017-07-24T08:10:56.113Z,360
2017-07-24T08:11:57.991Z,355
2017-07-24T08:12:59.953Z,350
2017-07-24T08:14:14.137Z,340
2017-07-24T08:15:16.010Z,335
2017-07-24T08:16:17.890Z,340
2017-07-24T08:17:19.791Z,345
2017-07-24T08:18:21.611Z,345
2017-07-24T08:19:23.548Z,350
2017-07-24T08:20:25.481Z,350
2017-07-24T08:21:27.389Z,355
2017-07-24T08:22:29.258Z,365
2017-07-24T08:23:43.417Z,380
2017-07-24T08:24:45.338Z,395
2017-07-24T08:25:47.236Z,410
2017-07-24T08:26:49.112Z,415
2017-07-24T08:27:50.950Z,415
2017-07-24T08:28:52.782Z,415
2017-07-24T08:29:54.682Z,415
2017-07-24T08:30:56.560Z,415
2017-07-24T08:31:58.459Z,415
2017-07-24T08:33:12.619Z,405
2017-07-24T08:34:14.511Z,395
2017-07-24T08:35:16.399Z,395
2017-07-24T08:36:18.277Z,395
2017-07-24T08:37:20.126Z,405
2017-07-24T08:38:21.972Z,415
2017-07-24T08:39:23.831Z,415
2017-07-24T08:40:25.658Z,410
2017-07-24T08:41:27.509Z,410
2017-07-24T08:42:41.668Z,405
2017-07-24T08:43:43.544Z,410
2017-07-24T08:44:45.421Z,410
2017-07-24T08:45:47.302Z,415
2017-07-24T08:46:49.150Z,415
2017-07-24T08:47:51.005Z,425
2017-07-24T08:48:52.884Z,430
2017-07-24T08:49:54.769Z,440
2017-07-24T08:50:56.678Z,440
2017-07-24T08:52:10.841Z,445
2017-07-24T08:53:12.663Z,445
2017-07-24T08:54:14.528Z,450
2017-07-24T08:55:16.433Z,460
2017-07-24T08:56:18.315Z,465
2017-07-24T08:57:20.190Z,460
2017-07-24T08:58:22.009Z,455
2017-07-24T08:59:23.853Z,450
2017-07-24T09:00:25.732Z,450
2017-07-24T09:01:39.958Z,450
2017-07-24T09:02:41.858Z,450
2017-07-24T09:03:43.763Z,450
2017-07-24T09:04:45.669Z,455
2017-07-24T09:05:47.491Z,450
2017-07-24T09:06:49.334Z,445
2017-07-24T09:07:51.239Z,440
2017-07-24T09:08:53.146Z,435
2017-07-24T09:09:55.047Z,440
2017-07-24T09:11:09.228Z,440
2017-07-24T09:12:11.106Z,440
2017-07-24T09:13:13.014Z,440
2017-07-24T09:14:14.893Z,440
2017-07-24T09:15:16.713Z,440
2017-07-24T09:16:18.564Z,445
2017-07-24T09:17:20.464Z,440
2017-07-24T09:18:22.359Z,435
2017-07-24T09:19:24.242Z,430
2017-07-24T09:20:38.414Z,430
2017-07-24T09:21:40.311Z,425
2017-07-24T09:22:42.191Z,425
2017-07-24T09:23:44.100Z,420
2017-07-24T09:24:45.947Z,415
2017-07-24T09:25:47.790Z,415
2017-07-24T09:26:49.665Z,410
2017-07-24T09:27:51.553Z,405
2017-07-24T09:28:53.456Z,405
2017-07-24T09:30:07.644Z,405
2017-07-24T09:31:09.547Z,405
2017-07-24T09:32:11.450Z,405
2017-07-24T09:33:13.355Z,405
2017-07-24T09:34:15.171Z,410
2017-07-24T09:35:16.998Z,415
2017-07-24T09:36:18.880Z,420
2017-07-24T09:37:20.784Z,415
2017-07-24T09:38:22.696Z,420
2017-07-24T09:39:36.849Z,410
2017-07-24T09:40:38.730Z,405
2017-07-24T09:41:40.607Z,395
2017-07-24T09:42:42.485Z,390
2017-07-24T09:43:44.332Z,385
2017-07-24T09:44:46.149Z,380
2017-07-24T09:45:48.036Z,375
2017-07-24T09:46:49.943Z,375
2017-07-24T09:47:51.845Z,370
2017-07-24T09:49:06.007Z,370
2017-07-24T09:50:07.904Z,370
2017-07-24T09:51:09.784Z,375
2017-07-24T09:52:11.666Z,375
2017-07-24T09:53:13.516Z,375
2017-07-24T09:54:15.358Z,375
2017-07-24T09:55:17.242Z,375
2017-07-24T09:56:19.118Z,370
2017-07-24T09:57:21.019Z,370
2017-07-24T09:58:35.207Z,370
2017-07-24T09:59:37.105Z,370
2017-07-24T10:00:39.015Z,370
2017-07-24T10:01:40.889Z,370
2017-07-24T10:02:42.708Z,375
2017-07-24T10:03:44.532Z,375
2017-07-24T10:04:46.424Z,375
2017-07-24T10:05:48.307Z,375
2017-07-24T10:06:50.188Z,375
2017-07-24T10:08:04.349Z,370
2017-07-24T10:09:06.253Z,370
2017-07-24T10:10:08.152Z,360
2017-07-24T10:11:10.031Z,360
2017-07-24T10:12:11.857Z,350
2017-07-24T10:13:13.672Z,350
2017-07-24T10:14:15.553Z,345
2017-07-24T10:15:17.436Z,345
2017-07-24T10:16:19.320Z,350
2017-07-24T10:17:33.500Z,345
2017-07-24T10:18:35.384Z,340
2017-07-24T10:19:37.287Z,335
2017-07-24T10:20:39.192Z,335
2017-07-24T10:21:41.008Z,340
2017-07-24T10:22:42.833Z,340
2017-07-24T10:23:44.717Z,345
2017-07-24T10:24:46.617Z,350
2017-07-24T10:25:48.525Z,350
2017-07-24T10:27:02.686Z,350
2017-07-24T10:28:04.567Z,355
2017-07-24T10:29:06.442Z,355
2017-07-24T10:30:08.324Z,360
2017-07-24T10:31:10.164Z,360
2017-07-24T10:32:11.988Z,365
2017-07-24T10:33:13.875Z,365
2017-07-24T10:34:15.773Z,365
2017-07-24T10:35:17.653Z,370
2017-07-24T10:36:31.811Z,375
2017-07-24T10:37:33.690Z,370
2017-07-24T10:38:35.575Z,365
2017-07-24T10:39:37.452Z,365
2017-07-24T10:40:39.272Z,360
2017-07-24T10:41:41.102Z,360
2017-07-24T10:42:43.001Z,355
2017-07-24T10:43:44.904Z,350
2017-07-24T10:44:46.789Z,350
2017-07-24T10:46:00.973Z,350
2017-07-24T10:47:02.876Z,350
2017-07-24T10:48:04.771Z,350
2017-07-24T10:49:06.649Z,350
2017-07-24T10:50:08.471Z,355
2017-07-24T10:51:10.303Z,355
2017-07-24T10:52:12.214Z,360
2017-07-24T10:53:14.115Z,360
2017-07-24T10:54:16.002Z,360
2017-07-24T10:55:30.155Z,365
2017-07-24T10:56:32.064Z,370
2017-07-24T10:57:33.969Z,375
2017-07-24T10:58:35.857Z,375
2017-07-24T10:59:37.701Z,380
2017-07-24T11:00:39.525Z,380
2017-07-24T11:01:41.410Z,385
2017-07-24T11:02:43.314Z,390
2017-07-24T11:03:45.198Z,390
2017-07-24T11:04:59.408Z,385
2017-07-24T11:06:01.309Z,385
2017-07-24T11:07:03.215Z,380
2017-07-24T11:08:05.131Z,380
2017-07-24T11:09:06.972Z,380
2017-07-24T11:10:08.788Z,380
2017-07-24T11:11:10.666Z,380
2017-07-24T11:12:12.554Z,385
2017-07-24T11:13:14.431Z,390
2017-07-24T11:14:28.621Z,395
2017-07-24T11:15:30.533Z,410
2017-07-24T11:16:32.445Z,415
2017-07-24T11:17:34.360Z,425
2017-07-24T11:18:36.198Z,430
2017-07-24T11:19:38.042Z,435
2017-07-24T11:20:39.933Z,440
2017-07-24T11:21:42.077Z,445
2017-07-24T11:22:44.107Z,455
2017-07-24T11:23:58.284Z,460
2017-07-24T11:25:00.169Z,460
2017-07-24T11:26:02.074Z,475
2017-07-24T11:27:03.950Z,470
2017-07-24T11:28:05.782Z,470
2017-07-24T11:29:07.630Z,470
2017-07-24T11:30:09.535Z,465
2017-07-24T11:31:11.467Z,465
2017-07-24T11:32:13.326Z,465
2017-07-24T11:33:27.520Z,470
2017-07-24T11:34:29.422Z,465
2017-07-24T11:35:31.356Z,460
2017-07-24T11:36:33.242Z,460
2017-07-24T11:37:35.084Z,460
2017-07-24T11:38:36.926Z,465
2017-07-24T11:39:38.812Z,465
2017-07-24T11:40:40.720Z,460
2017-07-24T11:41:42.625Z,460
2017-07-24T11:42:56.789Z,465
2017-07-24T11:43:58.646Z,460
2017-07-24T11:45:00.578Z,455
2017-07-24T11:46:02.477Z,445
2017-07-24T11:47:04.312Z,435
2017-07-24T11:48:06.160Z,435
2017-07-24T11:49:08.071Z,430
2017-07-24T11:50:09.970Z,435
2017-07-24T11:51:11.859Z,440
2017-07-24T11:52:26.020Z,445
2017-07-24T11:53:27.934Z,450
2017-07-24T11:54:29.833Z,450
2017-07-24T11:55:31.746Z,445
2017-07-24T11:56:33.600Z,445
2017-07-24T11:57:35.451Z,445
2017-07-24T11:58:37.371Z,450
2017-07-24T11:59:39.275Z,450
2017-07-24T12:00:41.174Z,450
2017-07-24T12:01:55.351Z,455
2017-07-24T12:02:57.237Z,460
2017-07-24T12:03:59.146Z,455
2017-07-24T12:05:01.047Z,455
2017-07-24T12:06:02.910Z,455
2017-07-24T12:07:04.719Z,455
2017-07-24T12:08:06.622Z,455
2017-07-24T12:09:08.531Z,455
2017-07-24T12:10:10.411Z,455
2017-07-24T12:11:24.653Z,455
2017-07-24T12:12:26.550Z,455
2017-07-24T12:13:28.458Z,455
2017-07-24T12:14:30.373Z,460
2017-07-24T12:15:32.217Z,460
2017-07-24T12:16:34.069Z,455
2017-07-24T12:17:35.945Z,455
2017-07-24T12:18:37.849Z,455
2017-07-24T12:19:39.732Z,450
2017-07-24T12:20:53.965Z,445
2017-07-24T12:21:55.851Z,445
2017-07-24T12:22:57.757Z,445
2017-07-24T12:23:59.637Z,445
2017-07-24T12:25:01.490Z,445
2017-07-24T12:26:03.336Z,450
2017-07-24T12:27:05.242Z,450
2017-07-24T12:28:07.133Z,450
2017-07-24T12:29:09.006Z,445
2017-07-24T12:30:23.168Z,445
2017-07-24T12:31:25.051Z,445
2017-07-24T12:32:26.930Z,445
2017-07-24T12:33:28.814Z,445
2017-07-24T12:34:30.642Z,445
2017-07-24T12:35:32.485Z,445
2017-07-24T12:36:34.391Z,440
2017-07-24T12:37:36.301Z,445
2017-07-24T12:38:38.180Z,440
2017-07-24T12:39:52.377Z,440
2017-07-24T12:40:54.346Z,440
2017-07-24T12:41:56.306Z,435
2017-07-24T12:42:58.264Z,435
2017-07-24T12:44:00.093Z,430
2017-07-24T12:45:01.912Z,430
2017-07-24T12:46:03.838Z,435
2017-07-24T12:47:05.786Z,425
2017-07-24T12:48:07.683Z,425
2017-07-24T12:49:21.862Z,420
2017-07-24T12:50:23.748Z,420
2017-07-24T12:51:25.660Z,415
2017-07-24T12:52:27.548Z,415
2017-07-24T12:53:29.401Z,415
2017-07-24T12:54:31.273Z,405
2017-07-24T12:55:33.166Z,405
2017-07-24T12:56:35.077Z,400
2017-07-24T12:57:37.017Z,395
2017-07-24T12:58:51.226Z,395
2017-07-24T12:59:53.177Z,395
2017-07-24T13:00:55.092Z,390
2017-07-24T13:01:56.984Z,380
2017-07-24T13:02:58.807Z,375
2017-07-24T13:04:00.655Z,365
2017-07-24T13:05:02.611Z,360
2017-07-24T13:06:04.519Z,355
2017-07-24T13:07:06.422Z,350
2017-07-24T13:08:20.612Z,340
2017-07-24T13:09:22.491Z,335
2017-07-24T13:10:24.372Z,335
2017-07-24T13:11:26.282Z,325
2017-07-24T13:12:28.128Z,325
2017-07-24T13:13:29.975Z,325
2017-07-24T13:14:31.882Z,325
2017-07-24T13:15:33.813Z,325
2017-07-24T13:16:35.683Z,325
2017-07-24T13:17:49.840Z,325
2017-07-24T13:18:51.722Z,330
2017-07-24T13:19:53.639Z,335
2017-07-24T13:20:55.519Z,340
2017-07-24T13:21:57.340Z,345
2017-07-24T13:22:59.155Z,355
2017-07-24T13:24:01.044Z,350
2017-07-24T13:25:02.948Z,355
2017-07-24T13:26:04.833Z,365
2017-07-24T13:27:18.997Z,370
2017-07-24T13:28:20.903Z,380
2017-07-24T13:29:22.810Z,380
2017-07-24T13:30:24.675Z,385
2017-07-24T13:31:26.500Z,385
2017-07-24T13:32:28.320Z,385
2017-07-24T13:33:30.205Z,380
2017-07-24T13:34:32.113Z,370
2017-07-24T13:35:34.018Z,365
2017-07-24T13:36:48.171Z,365
2017-07-24T13:37:50.058Z,365
2017-07-24T13:43:08.169Z,350
2017-07-24T13:44:10.118Z,340
2017-07-24T13:45:11.930Z,330
2017-07-24T13:46:13.748Z,330
2017-07-24T13:47:15.618Z,325
2017-07-24T13:48:17.501Z,315
2017-07-24T13:49:19.410Z,305
2017-07-24T13:50:21.225Z,300
2017-07-24T13:51:35.404Z,285
2017-07-24T13:52:37.269Z,280
2017-07-24T13:53:39.189Z,270
2017-07-24T13:54:41.224Z,270
2017-07-24T13:55:43.080Z,275
2017-07-24T13:56:44.925Z,275
2017-07-24T13:57:46.805Z,275
2017-07-24T13:58:48.712Z,275
2017-07-24T13:59:50.596Z,270
2017-07-24T14:01:04.775Z,270
2017-07-24T14:02:06.652Z,270
2017-07-24T14:03:08.553Z,260
2017-07-24T14:04:10.459Z,260
2017-07-24T14:05:12.277Z,255
2017-07-24T14:06:14.119Z,255
2017-07-24T14:07:15.992Z,250
2017-07-24T14:08:17.873Z,250
2017-07-24T14:09:19.756Z,245
2017-07-24T14:10:33.913Z,235
2017-07-24T14:11:35.792Z,235
2017-07-24T14:12:37.665Z,235
2017-07-24T14:13:39.544Z,235
2017-07-24T14:14:41.401Z,235
2017-07-24T14:15:43.248Z,240
2017-07-24T14:16:45.116Z,240
2017-07-24T14:17:47.000Z,240
2017-07-24T14:18:48.906Z,240
2017-07-24T14:20:03.179Z,245
2017-07-24T14:21:05.077Z,245
2017-07-24T14:22:06.964Z,245
2017-07-24T14:23:08.891Z,250
2017-07-24T14:24:10.764Z,250
2017-07-24T14:25:12.592Z,245
2017-07-24T14:26:14.490Z,245
2017-07-24T14:27:16.367Z,245
2017-07-24T14:28:18.252Z,250
2017-07-24T14:29:32.416Z,250
2017-07-24T14:30:34.292Z,250
2017-07-24T14:31:36.172Z,250
2017-07-24T14:32:38.060Z,255
2017-07-24T14:33:39.906Z,255
2017-07-24T14:34:41.749Z,255
2017-07-24T14:35:43.632Z,255
2017-07-24T14:36:45.518Z,255
2017-07-24T14:37:47.382Z,255
2017-07-24T14:39:01.542Z,255
2017-07-24T14:40:03.448Z,255
2017-07-24T14:41:05.325Z,250
2017-07-24T14:42:07.209Z,250
2017-07-24T14:43:09.053Z,250
2017-07-24T14:44:10.900Z,250
2017-07-24T14:45:12.803Z,250
2017-07-24T14:46:14.690Z,245
2017-07-24T14:47:16.570Z,245
2017-07-24T14:48:30.726Z,240
2017-07-24T14:49:32.618Z,235
2017-07-24T14:50:34.523Z,230
2017-07-24T14:51:36.432Z,230